Hai Chang 18 — BAOW — position and weather

sailwx.info

Track history (hours):
 
Tides and Currents Weather Stations Pressure Air Temp Water Temp Dewpoint Dewpoint Depression Visibility Wind Speed Wind Dir Waves Ship Positions

Hai Chang 18

Last reported at 2017-Dec-18 00:55 UTC. Time now 2017-Dec-18 01:12 UTC.
Position N 31°05' E 122°01'.

Length 113 m; draft 6.5 m.

Type: Ship (hazmat cat B). MMSI: 413304740.

Date/timePositionNaut miles runAvg speedWind from/ knotsBaromVisibWave heightAir tempDewpointWater temp
2017-Dec-18 00:55N 31°05' E 122°01'2 5.2
2017-Dec-18 00:30N 31°06' E 121°59'3 5.9
2017-Dec-17 23:59N 31°07' E 121°55'8 5.1
2017-Dec-17 22:28N 31°12' E 121°49'19 5.3
2017-Dec-17 18:58N 31°24' E 121°32'3 6.8
2017-Dec-17 18:30N 31°26' E 121°29'3 6.1
2017-Dec-17 17:59N 31°29' E 121°26'3 6.2
2017-Dec-17 17:30N 31°31' E 121°24'4 8.2
2017-Dec-17 17:00N 31°33' E 121°20'4 7.9
2017-Dec-17 16:30N 31°36' E 121°17'4 7.9
2017-Dec-17 15:59N 31°39' E 121°13'4 8.6
2017-Dec-17 15:29N 31°41' E 121°10'  
2017-Dec-10 12:07N 31°45' E 121°06'511.0
2017-Dec-10 11:43N 31°42' E 121°09'211.4
2017-Dec-10 11:30N 31°40' E 121°12'611.3
2017-Dec-10 11:00N 31°37' E 121°17'510.3
2017-Dec-10 10:30N 31°33' E 121°21'510.3
2017-Dec-10 10:00N 31°30' E 121°26'31 9.5
2017-Dec-10 06:44N 31°09' E 121°53'211.1
2017-Dec-10 06:30N 31°08' E 121°55'510.2
2017-Dec-10 06:00N 31°05' E 122°01'610.3
2017-Dec-10 05:28N 31°04' E 122°07'510.3
2017-Dec-10 04:57N 31°01' E 122°12'510.8
2017-Dec-10 04:26N 30°58' E 122°17'  
Track history (hours):
 
Tides and Currents Weather Stations Pressure Air Temp Water Temp Dewpoint Dewpoint Depression Visibility Wind Speed Wind Dir Waves Ship Positions

Hai Chang 18

Last reported at 2017-Dec-18 00:55 UTC. Time now 2017-Dec-18 01:12 UTC.
Position N 31°05' E 122°01'.

Length 113 m; draft 6.5 m.

Type: Ship (hazmat cat B). MMSI: 413304740.

Date/timePositionNaut miles runAvg speedWind from/ knotsBaromVisibWave heightAir tempDewpointWater temp
2017-Dec-18 00:55N 31°05' E 122°01'2 5.2
2017-Dec-18 00:30N 31°06' E 121°59'3 5.9
2017-Dec-17 23:59N 31°07' E 121°55'8 5.1
2017-Dec-17 22:28N 31°12' E 121°49'19 5.3
2017-Dec-17 18:58N 31°24' E 121°32'3 6.8
2017-Dec-17 18:30N 31°26' E 121°29'3 6.1
2017-Dec-17 17:59N 31°29' E 121°26'3 6.2
2017-Dec-17 17:30N 31°31' E 121°24'4 8.2
2017-Dec-17 17:00N 31°33' E 121°20'4 7.9
2017-Dec-17 16:30N 31°36' E 121°17'4 7.9
2017-Dec-17 15:59N 31°39' E 121°13'4 8.6
2017-Dec-17 15:29N 31°41' E 121°10'  
2017-Dec-10 12:07N 31°45' E 121°06'511.0
2017-Dec-10 11:43N 31°42' E 121°09'211.4
2017-Dec-10 11:30N 31°40' E 121°12'611.3
2017-Dec-10 11:00N 31°37' E 121°17'510.3
2017-Dec-10 10:30N 31°33' E 121°21'510.3
2017-Dec-10 10:00N 31°30' E 121°26'31 9.5
2017-Dec-10 06:44N 31°09' E 121°53'211.1
2017-Dec-10 06:30N 31°08' E 121°55'510.2
2017-Dec-10 06:00N 31°05' E 122°01'610.3
2017-Dec-10 05:28N 31°04' E 122°07'510.3
2017-Dec-10 04:57N 31°01' E 122°12'510.8
2017-Dec-10 04:26N 30°58' E 122°17'  

Dump ship's entire track history